sensor_id;sensor_type;location;lat;lon;timestamp;pressure;altitude;pressure_sealevel;temperature;humidity
40850;BME280;26571;41.610;25.380;2024-01-15T00:01:53;97949.38;;;0.01;nan
40850;BME280;26571;41.610;25.380;2024-01-15T00:04:18;97941.38;;;0.04;nan
40850;BME280;26571;41.610;25.380;2024-01-15T00:06:43;97912.13;;;-0.21;nan
40850;BME280;26571;41.610;25.380;2024-01-15T00:09:09;97936.88;;;-0.06;nan
40850;BME280;26571;41.610;25.380;2024-01-15T00:11:35;97920.97;;;-0.12;nan
40850;BME280;26571;41.610;25.380;2024-01-15T00:14:00;97897.06;;;-0.27;nan
40850;BME280;26571;41.610;25.380;2024-01-15T00:16:26;97933.47;;;-0.06;nan
40850;BME280;26571;41.610;25.380;2024-01-15T00:18:51;97930.19;;;-0.08;nan
40850;BME280;26571;41.610;25.380;2024-01-15T00:21:17;97930.53;;;-0.02;nan
40850;BME280;26571;41.610;25.380;2024-01-15T00:23:43;97927.97;;;-0.02;nan
40850;BME280;26571;41.610;25.380;2024-01-15T00:26:11;97916.41;;;-0.09;nan
40850;BME280;26571;41.610;25.380;2024-01-15T00:28:37;97913.00;;;-0.09;nan
40850;BME280;26571;41.610;25.380;2024-01-15T00:31:04;97873.63;;;-0.37;nan
40850;BME280;26571;41.610;25.380;2024-01-15T00:33:29;97914.34;;;-0.28;nan
40850;BME280;26571;41.610;25.380;2024-01-15T00:35:55;97919.50;;;-0.28;nan
40850;BME280;26571;41.610;25.380;2024-01-15T00:38:20;97920.13;;;-0.24;nan
40850;BME280;26571;41.610;25.380;2024-01-15T00:40:46;97895.59;;;-0.42;nan
40850;BME280;26571;41.610;25.380;2024-01-15T00:43:11;97929.03;;;-0.28;nan
40850;BME280;26571;41.610;25.380;2024-01-15T00:45:37;97923.31;;;-0.44;nan
40850;BME280;26571;41.610;25.380;2024-01-15T00:48:03;97916.09;;;-0.28;nan
40850;BME280;26571;41.610;25.380;2024-01-15T00:50:29;97921.97;;;-0.26;nan
40850;BME280;26571;41.610;25.380;2024-01-15T00:52:54;97692.78;;;-1.80;nan
40850;BME280;26571;41.610;25.380;2024-01-15T00:55:20;97921.66;;;-0.45;nan
40850;BME280;26571;41.610;25.380;2024-01-15T00:57:45;97914.63;;;-0.43;nan
40850;BME280;26571;41.610;25.380;2024-01-15T01:00:11;97919.34;;;-0.37;nan
40850;BME280;26571;41.610;25.380;2024-01-15T01:02:37;97911.81;;;-0.40;nan
40850;BME280;26571;41.610;25.380;2024-01-15T01:05:03;97921.25;;;-0.39;nan
40850;BME280;26571;41.610;25.380;2024-01-15T01:07:28;97915.63;;;-0.33;nan
40850;BME280;26571;41.610;25.380;2024-01-15T01:09:55;97917.25;;;-0.32;nan
40850;BME280;26571;41.610;25.380;2024-01-15T01:12:20;97917.72;;;-0.38;nan
40850;BME280;26571;41.610;25.380;2024-01-15T01:14:46;97886.84;;;-0.53;nan
40850;BME280;26571;41.610;25.380;2024-01-15T01:17:11;97904.03;;;-0.40;nan
40850;BME280;26571;41.610;25.380;2024-01-15T01:19:37;97918.66;;;-0.39;nan
40850;BME280;26571;41.610;25.380;2024-01-15T01:22:03;97918.16;;;-0.44;nan
40850;BME280;26571;41.610;25.380;2024-01-15T01:24:29;97921.75;;;-0.71;nan
40850;BME280;26571;41.610;25.380;2024-01-15T01:26:54;97919.81;;;-0.80;nan
40850;BME280;26571;41.610;25.380;2024-01-15T01:29:19;97917.59;;;-0.97;nan
40850;BME280;26571;41.610;25.380;2024-01-15T01:31:45;97919.44;;;-0.87;nan
40850;BME280;26571;41.610;25.380;2024-01-15T01:34:14;97920.66;;;-0.80;nan
40850;BME280;26571;41.610;25.380;2024-01-15T01:36:44;97923.63;;;-0.73;nan
40850;BME280;26571;41.610;25.380;2024-01-15T01:39:09;97921.16;;;-0.74;nan
40850;BME280;26571;41.610;25.380;2024-01-15T01:41:36;97909.16;;;-0.75;nan
40850;BME280;26571;41.610;25.380;2024-01-15T01:44:01;97900.72;;;-0.90;nan
40850;BME280;26571;41.610;25.380;2024-01-15T01:46:27;97897.22;;;-0.89;nan
40850;BME280;26571;41.610;25.380;2024-01-15T01:48:54;97898.69;;;-0.98;nan
40850;BME280;26571;41.610;25.380;2024-01-15T01:51:22;97900.84;;;-0.92;nan
40850;BME280;26571;41.610;25.380;2024-01-15T01:53:48;97897.22;;;-0.89;nan
40850;BME280;26571;41.610;25.380;2024-01-15T01:56:14;97889.38;;;-1.00;nan
40850;BME280;26571;41.610;25.380;2024-01-15T01:58:40;97894.56;;;-1.00;nan
40850;BME280;26571;41.610;25.380;2024-01-15T02:01:06;97897.22;;;-0.89;nan
40850;BME280;26571;41.610;25.380;2024-01-15T02:03:33;97893.47;;;-0.85;nan
40850;BME280;26571;41.610;25.380;2024-01-15T02:06:00;97887.91;;;-0.79;nan
40850;BME280;26571;41.610;25.380;2024-01-15T02:08:26;97887.66;;;-0.76;nan
40850;BME280;26571;41.610;25.380;2024-01-15T02:10:51;97875.81;;;-0.91;nan
40850;BME280;26571;41.610;25.380;2024-01-15T02:13:17;97899.81;;;-0.65;nan
40850;BME280;26571;41.610;25.380;2024-01-15T02:15:43;97902.22;;;-0.75;nan
40850;BME280;26571;41.610;25.380;2024-01-15T02:18:09;97849.66;;;-0.87;nan
40850;BME280;26571;41.610;25.380;2024-01-15T02:20:35;97885.91;;;-0.52;nan
40850;BME280;26571;41.610;25.380;2024-01-15T02:23:10;97877.78;;;-0.58;nan
40850;BME280;26571;41.610;25.380;2024-01-15T02:25:44;97874.38;;;-0.59;nan
40850;BME280;26571;41.610;25.380;2024-01-15T02:28:17;97873.38;;;-0.69;nan
40850;BME280;26571;41.610;25.380;2024-01-15T02:30:43;97853.31;;;-0.89;nan
40850;BME280;26571;41.610;25.380;2024-01-15T02:33:10;97871.06;;;-0.61;nan
40850;BME280;26571;41.610;25.380;2024-01-15T02:35:36;97709.25;;;-1.58;nan
40850;BME280;26571;41.610;25.380;2024-01-15T02:38:05;97870.13;;;-0.60;nan
40850;BME280;26571;41.610;25.380;2024-01-15T02:40:31;97882.03;;;-0.70;nan
40850;BME280;26571;41.610;25.380;2024-01-15T02:42:56;97865.88;;;-0.61;nan
40850;BME280;26571;41.610;25.380;2024-01-15T02:45:22;97867.03;;;-0.65;nan
40850;BME280;26571;41.610;25.380;2024-01-15T02:47:48;97866.66;;;-0.71;nan
40850;BME280;26571;41.610;25.380;2024-01-15T02:50:14;97823.91;;;-0.99;nan
40850;BME280;26571;41.610;25.380;2024-01-15T02:52:39;97856.97;;;-0.81;nan
40850;BME280;26571;41.610;25.380;2024-01-15T02:55:05;97869.31;;;-0.84;nan
40850;BME280;26571;41.610;25.380;2024-01-15T02:57:30;97859.72;;;-0.95;nan
40850;BME280;26571;41.610;25.380;2024-01-15T02:59:56;97856.53;;;-0.98;nan
40850;BME280;26571;41.610;25.380;2024-01-15T03:02:21;97858.63;;;-1.03;nan
40850;BME280;26571;41.610;25.380;2024-01-15T03:04:47;97850.38;;;-1.09;nan
40850;BME280;26571;41.610;25.380;2024-01-15T03:07:12;97857.19;;;-1.08;nan
40850;BME280;26571;41.610;25.380;2024-01-15T03:09:38;97844.09;;;-1.17;nan
40850;BME280;26571;41.610;25.380;2024-01-15T03:12:04;97848.44;;;-1.18;nan
40850;BME280;26571;41.610;25.380;2024-01-15T03:14:29;97849.88;;;-1.14;nan
40850;BME280;26571;41.610;25.380;2024-01-15T03:16:55;97831.63;;;-1.36;nan
40850;BME280;26571;41.610;25.380;2024-01-15T03:19:21;97851.66;;;-1.27;nan
40850;BME280;26571;41.610;25.380;2024-01-15T03:21:46;97858.69;;;-1.29;nan
40850;BME280;26571;41.610;25.380;2024-01-15T03:24:12;97851.84;;;-1.17;nan
40850;BME280;26571;41.610;25.380;2024-01-15T03:26:37;97843.25;;;-1.18;nan
40850;BME280;26571;41.610;25.380;2024-01-15T03:29:03;97853.66;;;-1.07;nan
40850;BME280;26571;41.610;25.380;2024-01-15T03:31:28;97864.31;;;-1.11;nan
40850;BME280;26571;41.610;25.380;2024-01-15T03:33:54;97850.56;;;-1.12;nan
40850;BME280;26571;41.610;25.380;2024-01-15T03:36:19;97836.59;;;-1.33;nan
40850;BME280;26571;41.610;25.380;2024-01-15T03:38:44;97853.59;;;-1.18;nan
40850;BME280;26571;41.610;25.380;2024-01-15T03:41:10;97849.78;;;-1.25;nan
40850;BME280;26571;41.610;25.380;2024-01-15T03:43:35;97851.44;;;-1.24;nan
40850;BME280;26571;41.610;25.380;2024-01-15T03:46:01;97852.09;;;-1.33;nan
40850;BME280;26571;41.610;25.380;2024-01-15T03:48:27;97853.03;;;-1.34;nan
40850;BME280;26571;41.610;25.380;2024-01-15T03:50:53;97850.84;;;-1.40;nan
40850;BME280;26571;41.610;25.380;2024-01-15T03:53:19;97840.44;;;-1.51;nan
40850;BME280;26571;41.610;25.380;2024-01-15T03:55:44;97846.91;;;-1.33;nan
40850;BME280;26571;41.610;25.380;2024-01-15T03:58:10;97841.50;;;-1.17;nan
40850;BME280;26571;41.610;25.380;2024-01-15T04:00:35;97841.63;;;-1.19;nan
40850;BME280;26571;41.610;25.380;2024-01-15T04:03:01;97875.81;;;-1.28;nan
40850;BME280;26571;41.610;25.380;2024-01-15T04:05:26;97844.19;;;-1.19;nan
40850;BME280;26571;41.610;25.380;2024-01-15T04:07:52;97840.69;;;-1.18;nan
40850;BME280;26571;41.610;25.380;2024-01-15T04:10:17;97814.13;;;-1.57;nan
40850;BME280;26571;41.610;25.380;2024-01-15T04:12:43;97847.94;;;-1.23;nan
40850;BME280;26571;41.610;25.380;2024-01-15T04:15:09;97849.78;;;-1.25;nan
40850;BME280;26571;41.610;25.380;2024-01-15T04:17:34;97850.63;;;-1.37;nan
40850;BME280;26571;41.610;25.380;2024-01-15T04:19:59;97850.84;;;-1.40;nan
40850;BME280;26571;41.610;25.380;2024-01-15T04:22:26;97847.75;;;-1.45;nan
40850;BME280;26571;41.610;25.380;2024-01-15T04:24:52;97852.78;;;-1.31;nan
40850;BME280;26571;41.610;25.380;2024-01-15T04:27:17;97837.53;;;-1.34;nan
40850;BME280;26571;41.610;25.380;2024-01-15T04:29:43;97847.16;;;-1.49;nan
40850;BME280;26571;41.610;25.380;2024-01-15T04:32:09;97853.84;;;-1.46;nan
40850;BME280;26571;41.610;25.380;2024-01-15T04:34:35;97844.88;;;-1.53;nan
40850;BME280;26571;41.610;25.380;2024-01-15T04:37:00;97849.06;;;-1.40;nan
40850;BME280;26571;41.610;25.380;2024-01-15T04:39:26;97849.94;;;-1.39;nan
40850;BME280;26571;41.610;25.380;2024-01-15T04:41:51;97847.75;;;-1.33;nan
40850;BME280;26571;41.610;25.380;2024-01-15T04:44:17;97852.78;;;-1.31;nan
40850;BME280;26571;41.610;25.380;2024-01-15T04:46:43;97804.63;;;-1.56;nan
40850;BME280;26571;41.610;25.380;2024-01-15T04:49:09;97837.63;;;-1.36;nan
40850;BME280;26571;41.610;25.380;2024-01-15T04:51:35;97835.78;;;-1.46;nan
40850;BME280;26571;41.610;25.380;2024-01-15T04:54:01;97815.88;;;-1.57;nan
40850;BME280;26571;41.610;25.380;2024-01-15T04:56:26;97849.19;;;-1.41;nan
40850;BME280;26571;41.610;25.380;2024-01-15T04:58:51;97851.88;;;-1.43;nan
40850;BME280;26571;41.610;25.380;2024-01-15T05:01:17;97864.69;;;-1.41;nan
40850;BME280;26571;41.610;25.380;2024-01-15T05:03:43;97857.69;;;-1.52;nan
40850;BME280;26571;41.610;25.380;2024-01-15T05:06:08;97858.69;;;-1.54;nan
40850;BME280;26571;41.610;25.380;2024-01-15T05:08:34;97839.00;;;-1.81;nan
40850;BME280;26571;41.610;25.380;2024-01-15T05:10:59;97866.59;;;-1.69;nan
40850;BME280;26571;41.610;25.380;2024-01-15T05:13:25;97831.38;;;-1.95;nan
40850;BME280;26571;41.610;25.380;2024-01-15T05:15:51;97853.78;;;-1.83;nan
40850;BME280;26571;41.610;25.380;2024-01-15T05:18:16;97858.31;;;-1.74;nan
40850;BME280;26571;41.610;25.380;2024-01-15T05:20:42;97844.78;;;-1.65;nan
40850;BME280;26571;41.610;25.380;2024-01-15T05:23:07;97837.03;;;-1.65;nan
40850;BME280;26571;41.610;25.380;2024-01-15T05:25:33;97830.66;;;-1.72;nan
40850;BME280;26571;41.610;25.380;2024-01-15T05:27:59;97842.19;;;-1.65;nan
40850;BME280;26571;41.610;25.380;2024-01-15T05:30:25;97821.38;;;-1.87;nan
40850;BME280;26571;41.610;25.380;2024-01-15T05:32:50;97835.91;;;-1.61;nan
40850;BME280;26571;41.610;25.380;2024-01-15T05:35:16;97837.53;;;-1.60;nan
40850;BME280;26571;41.610;25.380;2024-01-15T05:37:43;97839.34;;;-1.73;nan
40850;BME280;26571;41.610;25.380;2024-01-15T05:40:10;97847.19;;;-1.87;nan
40850;BME280;26571;41.610;25.380;2024-01-15T05:42:36;97810.94;;;-2.11;nan
40850;BME280;26571;41.610;25.380;2024-01-15T05:45:01;97842.00;;;-1.87;nan
40850;BME280;26571;41.610;25.380;2024-01-15T05:47:29;97836.84;;;-1.87;nan
40850;BME280;26571;41.610;25.380;2024-01-15T05:49:56;97829.44;;;-1.79;nan
40850;BME280;26571;41.610;25.380;2024-01-15T05:52:22;97822.59;;;-1.80;nan
40850;BME280;26571;41.610;25.380;2024-01-15T05:54:48;97817.66;;;-1.83;nan
40850;BME280;26571;41.610;25.380;2024-01-15T05:57:14;97827.75;;;-1.80;nan
40850;BME280;26571;41.610;25.380;2024-01-15T05:59:39;97819.78;;;-1.64;nan
40850;BME280;26571;41.610;25.380;2024-01-15T06:02:05;97815.56;;;-1.52;nan
40850;BME280;26571;41.610;25.380;2024-01-15T06:04:30;97821.13;;;-1.46;nan
40850;BME280;26571;41.610;25.380;2024-01-15T06:06:56;97799.25;;;-1.53;nan
40850;BME280;26571;41.610;25.380;2024-01-15T06:09:21;97826.25;;;-1.33;nan
40850;BME280;26571;41.610;25.380;2024-01-15T06:11:47;97829.34;;;-1.28;nan
40850;BME280;26571;41.610;25.380;2024-01-15T06:14:12;97825.06;;;-1.16;nan
40850;BME280;26571;41.610;25.380;2024-01-15T06:16:38;97834.63;;;-1.06;nan
40850;BME280;26571;41.610;25.380;2024-01-15T06:19:03;97818.19;;;-1.05;nan
40850;BME280;26571;41.610;25.380;2024-01-15T06:21:29;97829.41;;;-0.10;nan
40850;BME280;26571;41.610;25.380;2024-01-15T06:23:54;97826.59;;;0.72;nan
40850;BME280;26571;41.610;25.380;2024-01-15T06:26:22;97823.59;;;1.74;nan
40850;BME280;26571;41.610;25.380;2024-01-15T06:28:47;97826.72;;;2.20;nan
40850;BME280;26571;41.610;25.380;2024-01-15T06:31:13;97838.94;;;2.08;nan
40850;BME280;26571;41.610;25.380;2024-01-15T06:33:38;97830.50;;;1.85;nan
40850;BME280;26571;41.610;25.380;2024-01-15T06:36:04;97827.75;;;1.66;nan
40850;BME280;26571;41.610;25.380;2024-01-15T06:38:30;97838.41;;;1.51;nan
40850;BME280;26571;41.610;25.380;2024-01-15T06:40:56;97828.50;;;1.57;nan
40850;BME280;26571;41.610;25.380;2024-01-15T06:43:21;97828.34;;;1.69;nan
40850;BME280;26571;41.610;25.380;2024-01-15T06:45:47;97827.31;;;1.81;nan
40850;BME280;26571;41.610;25.380;2024-01-15T06:48:12;97823.19;;;1.79;nan
40850;BME280;26571;41.610;25.380;2024-01-15T06:50:40;97786.44;;;1.21;nan
40850;BME280;26571;41.610;25.380;2024-01-15T06:53:05;97825.28;;;1.32;nan
40850;BME280;26571;41.610;25.380;2024-01-15T06:55:31;97830.66;;;1.08;nan
40850;BME280;26571;41.610;25.380;2024-01-15T06:57:57;97812.91;;;0.92;nan
40850;BME280;26571;41.610;25.380;2024-01-15T07:00:22;97810.94;;;0.85;nan
40850;BME280;26571;41.610;25.380;2024-01-15T07:02:48;97798.00;;;0.73;nan
40850;BME280;26571;41.610;25.380;2024-01-15T07:05:13;97817.69;;;1.08;nan
40850;BME280;26571;41.610;25.380;2024-01-15T07:07:39;97820.56;;;1.90;nan
40850;BME280;26571;41.610;25.380;2024-01-15T07:10:05;97825.13;;;2.99;nan
40850;BME280;26571;41.610;25.380;2024-01-15T07:12:31;97786.25;;;3.66;nan
40850;BME280;26571;41.610;25.380;2024-01-15T07:14:56;97816.66;;;3.94;nan
40850;BME280;26571;41.610;25.380;2024-01-15T07:17:22;97823.81;;;3.63;nan
40850;BME280;26571;41.610;25.380;2024-01-15T07:19:47;97816.03;;;4.20;nan
40850;BME280;26571;41.610;25.380;2024-01-15T07:22:14;97807.97;;;5.05;nan
40850;BME280;26571;41.610;25.380;2024-01-15T07:24:42;97813.81;;;5.35;nan
40850;BME280;26571;41.610;25.380;2024-01-15T07:27:08;97809.19;;;5.64;nan
40850;BME280;26571;41.610;25.380;2024-01-15T07:29:34;97794.38;;;5.91;nan
40850;BME280;26571;41.610;25.380;2024-01-15T07:32:03;97800.97;;;6.47;nan
40850;BME280;26571;41.610;25.380;2024-01-15T07:34:29;97799.84;;;6.92;nan
40850;BME280;26571;41.610;25.380;2024-01-15T07:36:54;97801.06;;;7.14;nan
40850;BME280;26571;41.610;25.380;2024-01-15T07:39:20;97800.06;;;7.15;nan
40850;BME280;26571;41.610;25.380;2024-01-15T07:41:47;97794.69;;;7.16;nan
40850;BME280;26571;41.610;25.380;2024-01-15T07:44:13;97793.06;;;7.40;nan
40850;BME280;26571;41.610;25.380;2024-01-15T07:46:38;97783.28;;;7.66;nan
40850;BME280;26571;41.610;25.380;2024-01-15T07:49:05;97792.09;;;7.65;nan
40850;BME280;26571;41.610;25.380;2024-01-15T07:51:30;97780.00;;;7.48;nan
40850;BME280;26571;41.610;25.380;2024-01-15T07:53:56;97778.94;;;7.00;nan
40850;BME280;26571;41.610;25.380;2024-01-15T07:56:22;97768.50;;;6.24;nan
40850;BME280;26571;41.610;25.380;2024-01-15T07:58:47;97742.41;;;5.18;nan
40850;BME280;26571;41.610;25.380;2024-01-15T08:01:13;97776.13;;;4.56;nan
40850;BME280;26571;41.610;25.380;2024-01-15T08:03:38;97774.91;;;4.51;nan
40850;BME280;26571;41.610;25.380;2024-01-15T08:06:05;97768.84;;;4.87;nan
40850;BME280;26571;41.610;25.380;2024-01-15T08:08:34;97776.69;;;5.41;nan
40850;BME280;26571;41.610;25.380;2024-01-15T08:10:59;97776.25;;;6.07;nan
40850;BME280;26571;41.610;25.380;2024-01-15T08:13:26;97776.38;;;7.16;nan
40850;BME280;26571;41.610;25.380;2024-01-15T08:15:52;97752.97;;;7.96;nan
40850;BME280;26571;41.610;25.380;2024-01-15T08:18:17;97774.13;;;8.98;nan
40850;BME280;26571;41.610;25.380;2024-01-15T08:20:43;97755.19;;;9.56;nan
40850;BME280;26571;41.610;25.380;2024-01-15T08:23:08;97741.16;;;10.02;nan
40850;BME280;26571;41.610;25.380;2024-01-15T08:25:34;97729.66;;;10.47;nan
40850;BME280;26571;41.610;25.380;2024-01-15T08:28:00;97752.44;;;11.06;nan
40850;BME280;26571;41.610;25.380;2024-01-15T08:30:26;97746.81;;;11.09;nan
40850;BME280;26571;41.610;25.380;2024-01-15T08:32:56;97744.44;;;11.35;nan
40850;BME280;26571;41.610;25.380;2024-01-15T08:35:21;97739.72;;;11.52;nan
40850;BME280;26571;41.610;25.380;2024-01-15T08:37:52;97750.75;;;10.83;nan
40850;BME280;26571;41.610;25.380;2024-01-15T08:40:17;97732.56;;;10.52;nan
40850;BME280;26571;41.610;25.380;2024-01-15T08:42:43;97736.56;;;10.48;nan
40850;BME280;26571;41.610;25.380;2024-01-15T08:45:09;97737.34;;;10.64;nan
40850;BME280;26571;41.610;25.380;2024-01-15T08:47:35;97736.53;;;11.14;nan
40850;BME280;26571;41.610;25.380;2024-01-15T08:50:01;97722.81;;;11.68;nan
40850;BME280;26571;41.610;25.380;2024-01-15T08:52:28;97711.88;;;11.64;nan
40850;BME280;26571;41.610;25.380;2024-01-15T08:54:55;97713.69;;;11.43;nan
40850;BME280;26571;41.610;25.380;2024-01-15T08:57:20;97713.16;;;11.75;nan
40850;BME280;26571;41.610;25.380;2024-01-15T08:59:47;97774.19;;;11.94;nan
40850;BME280;26571;41.610;25.380;2024-01-15T09:02:13;97672.53;;;11.42;nan
40850;BME280;26571;41.610;25.380;2024-01-15T09:04:38;97716.34;;;11.21;nan
40850;BME280;26571;41.610;25.380;2024-01-15T09:07:04;97712.72;;;10.86;nan
40850;BME280;26571;41.610;25.380;2024-01-15T09:09:29;97706.13;;;10.75;nan
40850;BME280;26571;41.610;25.380;2024-01-15T09:11:55;97708.75;;;10.24;nan
40850;BME280;26571;41.610;25.380;2024-01-15T09:14:20;97692.91;;;9.95;nan
40850;BME280;26571;41.610;25.380;2024-01-15T09:16:47;97661.13;;;9.52;nan
40850;BME280;26571;41.610;25.380;2024-01-15T09:19:13;97679.38;;;9.83;nan
40850;BME280;26571;41.610;25.380;2024-01-15T09:21:39;97678.22;;;9.86;nan
40850;BME280;26571;41.610;25.380;2024-01-15T09:24:06;97674.94;;;9.08;nan
40850;BME280;26571;41.610;25.380;2024-01-15T09:26:32;97670.91;;;8.74;nan
40850;BME280;26571;41.610;25.380;2024-01-15T09:28:57;97649.63;;;8.38;nan
40850;BME280;26571;41.610;25.380;2024-01-15T09:31:23;97653.63;;;8.57;nan
40850;BME280;26571;41.610;25.380;2024-01-15T09:33:49;97647.47;;;8.02;nan
40850;BME280;26571;41.610;25.380;2024-01-15T09:36:18;97603.75;;;7.23;nan
40850;BME280;26571;41.610;25.380;2024-01-15T09:38:43;97630.00;;;7.78;nan
40850;BME280;26571;41.610;25.380;2024-01-15T09:41:09;97630.81;;;7.79;nan
40850;BME280;26571;41.610;25.380;2024-01-15T09:43:36;97613.41;;;7.39;nan
40850;BME280;26571;41.610;25.380;2024-01-15T09:46:03;97617.34;;;7.18;nan
40850;BME280;26571;41.610;25.380;2024-01-15T09:48:29;97609.50;;;6.94;nan
40850;BME280;26571;41.610;25.380;2024-01-15T09:50:55;97599.34;;;6.74;nan
40850;BME280;26571;41.610;25.380;2024-01-15T09:53:25;97583.94;;;6.39;nan
40850;BME280;26571;41.610;25.380;2024-01-15T09:55:52;97603.53;;;6.35;nan
40850;BME280;26571;41.610;25.380;2024-01-15T09:58:18;97594.34;;;6.14;nan
40850;BME280;26571;41.610;25.380;2024-01-15T10:00:44;97592.25;;;6.18;nan
40850;BME280;26571;41.610;25.380;2024-01-15T10:03:10;97560.00;;;6.01;nan
40850;BME280;26571;41.610;25.380;2024-01-15T10:05:37;97567.75;;;6.35;nan
40850;BME280;26571;41.610;25.380;2024-01-15T10:08:04;97582.69;;;6.67;nan
40850;BME280;26571;41.610;25.380;2024-01-15T10:10:30;97564.88;;;6.87;nan
40850;BME280;26571;41.610;25.380;2024-01-15T10:12:58;97570.56;;;7.15;nan
40850;BME280;26571;41.610;25.380;2024-01-15T10:15:26;97565.94;;;7.34;nan
40850;BME280;26571;41.610;25.380;2024-01-15T10:17:51;97554.47;;;7.51;nan
40850;BME280;26571;41.610;25.380;2024-01-15T10:20:17;97549.50;;;7.64;nan
40850;BME280;26571;41.610;25.380;2024-01-15T10:22:44;97553.84;;;7.80;nan
40850;BME280;26571;41.610;25.380;2024-01-15T10:25:12;97565.41;;;7.94;nan
40850;BME280;26571;41.610;25.380;2024-01-15T10:27:39;97542.13;;;7.99;nan
40850;BME280;26571;41.610;25.380;2024-01-15T10:30:05;97553.47;;;8.22;nan
40850;BME280;26571;41.610;25.380;2024-01-15T10:32:31;97554.13;;;8.24;nan
40850;BME280;26571;41.610;25.380;2024-01-15T10:34:57;97545.81;;;8.21;nan
40850;BME280;26571;41.610;25.380;2024-01-15T10:37:24;97541.81;;;8.25;nan
40850;BME280;26571;41.610;25.380;2024-01-15T10:39:50;97534.25;;;8.30;nan
40850;BME280;26571;41.610;25.380;2024-01-15T10:42:16;97530.78;;;8.38;nan
40850;BME280;26571;41.610;25.380;2024-01-15T10:44:44;97530.78;;;8.38;nan
40850;BME280;26571;41.610;25.380;2024-01-15T10:47:12;97534.06;;;8.40;nan
40850;BME280;26571;41.610;25.380;2024-01-15T10:49:38;97484.38;;;8.15;nan
40850;BME280;26571;41.610;25.380;2024-01-15T10:52:03;97521.75;;;8.40;nan
40850;BME280;26571;41.610;25.380;2024-01-15T10:54:30;97519.75;;;8.50;nan
40850;BME280;26571;41.610;25.380;2024-01-15T10:56:58;97519.44;;;8.45;nan
40850;BME280;26571;41.610;25.380;2024-01-15T10:59:24;97512.75;;;8.35;nan
40850;BME280;26571;41.610;25.380;2024-01-15T11:01:51;97522.03;;;8.22;nan
40850;BME280;26571;41.610;25.380;2024-01-15T11:04:20;97494.91;;;8.07;nan
40850;BME280;26571;41.610;25.380;2024-01-15T11:06:53;97506.88;;;8.33;nan
40850;BME280;26571;41.610;25.380;2024-01-15T11:09:21;97466.44;;;8.04;nan
40850;BME280;26571;41.610;25.380;2024-01-15T11:11:52;97487.66;;;8.17;nan
40850;BME280;26571;41.610;25.380;2024-01-15T11:14:40;97495.47;;;8.25;nan
40850;BME280;26571;41.610;25.380;2024-01-15T11:17:09;97476.47;;;8.23;nan
40850;BME280;26571;41.610;25.380;2024-01-15T11:25:02;97474.69;;;8.47;nan
40850;BME280;26571;41.610;25.380;2024-01-15T11:27:44;97472.75;;;8.41;nan
40850;BME280;26571;41.610;25.380;2024-01-15T11:30:11;97478.34;;;8.38;nan
40850;BME280;26571;41.610;25.380;2024-01-15T11:32:37;97464.72;;;8.34;nan
40850;BME280;26571;41.610;25.380;2024-01-15T11:35:06;97473.09;;;8.38;nan
40850;BME280;26571;41.610;25.380;2024-01-15T11:40:22;97467.56;;;8.56;nan
40850;BME280;26571;41.610;25.380;2024-01-15T11:42:48;97464.69;;;8.65;nan
40850;BME280;26571;41.610;25.380;2024-01-15T11:45:21;97472.84;;;8.70;nan
40850;BME280;26571;41.610;25.380;2024-01-15T11:50:21;97467.75;;;8.69;nan
40850;BME280;26571;41.610;25.380;2024-01-15T11:53:02;97463.97;;;8.71;nan
40850;BME280;26571;41.610;25.380;2024-01-15T11:55:36;97454.75;;;8.75;nan
40850;BME280;26571;41.610;25.380;2024-01-15T11:58:08;97465.56;;;8.95;nan
40850;BME280;26571;41.610;25.380;2024-01-15T12:00:39;97433.78;;;8.75;nan
40850;BME280;26571;41.610;25.380;2024-01-15T12:03:05;97459.66;;;9.08;nan
40850;BME280;26571;41.610;25.380;2024-01-15T12:05:31;97448.16;;;9.09;nan
40850;BME280;26571;41.610;25.380;2024-01-15T12:07:56;97439.94;;;9.12;nan
40850;BME280;26571;41.610;25.380;2024-01-15T12:10:22;97434.41;;;9.22;nan
40850;BME280;26571;41.610;25.380;2024-01-15T12:13:05;97436.38;;;9.20;nan
40850;BME280;26571;41.610;25.380;2024-01-15T12:15:32;97440.81;;;9.19;nan
40850;BME280;26571;41.610;25.380;2024-01-15T12:17:59;97406.97;;;8.95;nan
40850;BME280;26571;41.610;25.380;2024-01-15T12:20:30;97434.31;;;9.15;nan
40850;BME280;26571;41.610;25.380;2024-01-15T12:22:56;97441.94;;;9.10;nan
40850;BME280;26571;41.610;25.380;2024-01-15T12:25:25;97431.78;;;9.07;nan
40850;BME280;26571;41.610;25.380;2024-01-15T12:27:54;97425.91;;;9.05;nan
40850;BME280;26571;41.610;25.380;2024-01-15T12:30:20;97433.59;;;9.21;nan
40850;BME280;26571;41.610;25.380;2024-01-15T12:32:46;97429.69;;;9.32;nan
40850;BME280;26571;41.610;25.380;2024-01-15T12:35:14;97424.09;;;9.35;nan
40850;BME280;26571;41.610;25.380;2024-01-15T12:37:41;97395.91;;;9.14;nan
40850;BME280;26571;41.610;25.380;2024-01-15T12:40:08;97418.53;;;9.45;nan
40850;BME280;26571;41.610;25.380;2024-01-15T12:42:41;97417.28;;;9.41;nan
40850;BME280;26571;41.610;25.380;2024-01-15T12:45:11;97411.50;;;9.30;nan
40850;BME280;26571;41.610;25.380;2024-01-15T12:47:37;97411.03;;;9.27;nan
40850;BME280;26571;41.610;25.380;2024-01-15T12:50:06;97418.72;;;9.28;nan
40850;BME280;26571;41.610;25.380;2024-01-15T12:52:32;97396.44;;;9.24;nan
40850;BME280;26571;41.610;25.380;2024-01-15T12:54:57;97413.00;;;9.40;nan
40850;BME280;26571;41.610;25.380;2024-01-15T12:57:23;97404.84;;;9.35;nan
40850;BME280;26571;41.610;25.380;2024-01-15T12:59:49;97404.84;;;9.35;nan
40850;BME280;26571;41.610;25.380;2024-01-15T13:02:15;97402.41;;;9.33;nan
40850;BME280;26571;41.610;25.380;2024-01-15T13:04:41;97402.97;;;9.28;nan
40850;BME280;26571;41.610;25.380;2024-01-15T13:07:08;97406.41;;;9.29;nan
40850;BME280;26571;41.610;25.380;2024-01-15T13:09:34;97393.53;;;9.34;nan
40850;BME280;26571;41.610;25.380;2024-01-15T13:12:00;97390.34;;;9.39;nan
40850;BME280;26571;41.610;25.380;2024-01-15T13:14:27;97392.09;;;9.31;nan
40850;BME280;26571;41.610;25.380;2024-01-15T13:16:52;97401.28;;;9.21;nan
40850;BME280;26571;41.610;25.380;2024-01-15T13:19:19;97399.47;;;9.21;nan
40850;BME280;26571;41.610;25.380;2024-01-15T13:21:45;97393.00;;;9.24;nan